createdAt,value
2019-05-03T00:02:29.411Z,8.40
2019-05-03T00:05:15.524Z,8.30
2019-05-03T00:07:44.608Z,8.30
2019-05-03T00:10:14.847Z,8.30
2019-05-03T00:12:43.714Z,8.30
2019-05-03T00:15:17.470Z,8.30
2019-05-03T00:17:46.038Z,8.30
2019-05-03T00:20:14.752Z,8.30
2019-05-03T00:22:45.578Z,8.40
2019-05-03T00:25:15.026Z,8.40
2019-05-03T00:27:43.608Z,8.50
2019-05-03T00:30:12.695Z,8.50
2019-05-03T00:32:42.947Z,8.50
2019-05-03T00:35:19.676Z,8.50
2019-05-03T00:37:49.932Z,8.50
2019-05-03T00:40:24.421Z,8.50
2019-05-03T00:42:52.679Z,8.50
2019-05-03T00:45:22.118Z,8.50
2019-05-03T00:47:52.643Z,8.40
2019-05-03T00:50:22.552Z,8.40
2019-05-03T00:52:51.679Z,8.40
2019-05-03T00:55:21.880Z,8.30
2019-05-03T00:57:52.180Z,8.30
2019-05-03T01:00:21.777Z,8.20
2019-05-03T01:02:51.677Z,8.20
2019-05-03T01:05:22.541Z,8.20
2019-05-03T01:07:52.617Z,8.30
2019-05-03T01:10:22.599Z,8.30
2019-05-03T01:12:52.288Z,8.40
2019-05-03T01:15:25.579Z,8.40
2019-05-03T01:17:55.381Z,8.50
2019-05-03T01:20:23.981Z,8.50
2019-05-03T01:22:52.543Z,8.40
2019-05-03T01:25:32.038Z,8.50
2019-05-03T01:27:52.204Z,8.40
2019-05-03T01:30:22.636Z,8.40
2019-05-03T01:32:52.395Z,8.40
2019-05-03T01:35:21.966Z,8.40
2019-05-03T01:37:51.882Z,8.40
2019-05-03T01:40:22.121Z,8.40
2019-05-03T01:42:51.798Z,8.40
2019-05-03T01:45:22.653Z,8.40
2019-05-03T01:47:52.733Z,8.40
2019-05-03T01:50:31.936Z,8.40
2019-05-03T01:53:04.547Z,8.30
2019-05-03T01:55:52.458Z,8.30
2019-05-03T01:58:23.248Z,8.30
2019-05-03T02:00:54.274Z,8.20
2019-05-03T02:03:42.277Z,8.20
2019-05-03T02:06:11.886Z,8.10
2019-05-03T02:08:41.814Z,8.10
2019-05-03T02:11:11.685Z,8.00
2019-05-03T02:13:42.779Z,8.00
2019-05-03T02:16:11.657Z,7.90
2019-05-03T02:18:42.415Z,7.80
2019-05-03T02:21:12.197Z,7.80
2019-05-03T02:23:42.553Z,7.70
2019-05-03T02:26:11.763Z,7.70
2019-05-03T02:28:42.151Z,7.60
2019-05-03T02:31:13.741Z,7.60
2019-05-03T02:33:43.531Z,7.60
2019-05-03T02:36:13.648Z,7.60
2019-05-03T02:38:43.088Z,7.50
2019-05-03T02:41:13.607Z,7.50
2019-05-03T02:43:45.300Z,7.50
2019-05-03T02:46:25.471Z,7.40
2019-05-03T02:48:56.764Z,7.30
2019-05-03T02:51:26.385Z,7.30
2019-05-03T02:53:57.346Z,7.30
2019-05-03T02:56:26.228Z,7.20
2019-05-03T02:58:55.820Z,7.20
2019-05-03T03:01:26.497Z,7.20
2019-05-03T03:03:57.062Z,7.20
2019-05-03T03:06:29.374Z,7.20
2019-05-03T03:08:59.675Z,7.20
2019-05-03T03:11:31.907Z,7.20
2019-05-03T03:14:02.333Z,7.20
2019-05-03T03:16:35.890Z,7.20
2019-05-03T03:19:06.564Z,7.30
2019-05-03T03:21:39.349Z,7.20
2019-05-03T03:24:18.662Z,7.30
2019-05-03T03:26:49.954Z,7.20
2019-05-03T03:29:21.599Z,7.20
2019-05-03T03:32:08.915Z,7.20
2019-05-03T03:34:55.622Z,7.20
2019-05-03T03:37:19.077Z,7.10
2019-05-03T03:39:47.805Z,7.10
2019-05-03T03:42:20.363Z,7.10
2019-05-03T03:44:50.974Z,7.10
2019-05-03T03:47:21.464Z,7.10
2019-05-03T03:49:51.894Z,7.10
2019-05-03T03:52:21.971Z,7.10
2019-05-03T03:54:52.077Z,7.10
2019-05-03T03:57:20.862Z,7.10
2019-05-03T03:59:49.901Z,7.20
2019-05-03T04:02:18.468Z,7.20
2019-05-03T04:04:47.427Z,7.20
2019-05-03T04:07:16.343Z,7.30
2019-05-03T04:09:45.832Z,7.30
2019-05-03T04:12:16.408Z,7.30
2019-05-03T04:14:59.699Z,7.30
2019-05-03T04:17:47.400Z,7.30
2019-05-03T04:20:18.567Z,7.20
2019-05-03T04:22:48.655Z,7.20
2019-05-03T04:25:17.323Z,7.10
2019-05-03T04:27:45.972Z,7.10
2019-05-03T04:30:16.519Z,7.10
2019-05-03T04:32:45.532Z,7.10
2019-05-03T04:35:16.517Z,7.10
2019-05-03T04:37:45.382Z,7.00
2019-05-03T04:40:15.552Z,7.00
2019-05-03T04:42:46.472Z,7.00
2019-05-03T04:45:16.487Z,7.00
2019-05-03T04:47:46.390Z,7.00
2019-05-03T04:50:16.601Z,7.00
2019-05-03T04:52:46.656Z,7.00
2019-05-03T04:55:17.672Z,7.00
2019-05-03T04:57:50.428Z,7.00
2019-05-03T05:00:19.970Z,7.00
2019-05-03T05:02:49.868Z,7.00
2019-05-03T05:05:18.330Z,7.00
2019-05-03T05:07:48.475Z,7.10
2019-05-03T05:10:17.114Z,7.10
2019-05-03T05:12:45.955Z,7.20
2019-05-03T05:15:15.770Z,7.30
2019-05-03T05:17:49.372Z,7.30
2019-05-03T05:20:35.335Z,7.40
2019-05-03T05:23:04.551Z,7.40
2019-05-03T05:25:37.844Z,7.50
2019-05-03T05:28:26.348Z,7.60
2019-05-03T05:30:54.904Z,7.70
2019-05-03T05:33:25.216Z,7.80
2019-05-03T05:35:54.676Z,7.90
2019-05-03T05:38:25.324Z,7.90
2019-05-03T05:40:55.450Z,8.00
2019-05-03T05:43:26.265Z,8.00
2019-05-03T05:45:55.373Z,7.90
2019-05-03T05:48:34.778Z,8.00
2019-05-03T05:51:04.414Z,8.10
2019-05-03T05:53:33.210Z,8.20
2019-05-03T05:56:18.788Z,8.20
2019-05-03T05:58:57.394Z,8.30
2019-05-03T06:01:30.343Z,8.40
2019-05-03T06:03:58.807Z,8.40
2019-05-03T06:06:32.335Z,8.50
2019-05-03T06:09:07.952Z,8.60
2019-05-03T06:11:38.042Z,8.70
2019-05-03T06:14:16.838Z,8.80
2019-05-03T06:16:46.925Z,8.90
2019-05-03T06:19:17.016Z,9.00
2019-05-03T06:21:54.763Z,9.10
2019-05-03T06:24:36.778Z,9.30
2019-05-03T06:27:07.027Z,9.40
2019-05-03T06:29:35.490Z,9.50
2019-05-03T06:32:10.464Z,9.70
2019-05-03T06:34:38.939Z,9.90
2019-05-03T06:37:09.314Z,10.10
2019-05-03T06:39:37.771Z,10.00
2019-05-03T06:42:09.889Z,10.00
2019-05-03T06:44:36.875Z,10.10
2019-05-03T06:47:06.689Z,10.10
2019-05-03T06:49:39.368Z,10.10
2019-05-03T06:52:05.964Z,10.00
2019-05-03T06:54:37.666Z,10.00
2019-05-03T06:57:09.512Z,10.00
2019-05-03T06:59:38.826Z,10.00
2019-05-03T07:02:19.606Z,10.00
2019-05-03T07:04:52.639Z,10.00
2019-05-03T07:07:31.465Z,10.00
2019-05-03T07:10:07.236Z,10.00
2019-05-03T07:12:54.651Z,10.00
2019-05-03T07:15:25.130Z,10.10
2019-05-03T07:17:55.687Z,10.20
2019-05-03T07:20:25.525Z,10.20
2019-05-03T07:22:56.097Z,10.30
2019-05-03T07:25:25.606Z,10.30
2019-05-03T07:27:56.403Z,10.30
2019-05-03T07:30:25.102Z,10.20
2019-05-03T07:32:58.476Z,10.20
2019-05-03T07:35:30.353Z,10.10
2019-05-03T07:38:00.342Z,10.10
2019-05-03T07:40:28.852Z,10.20
2019-05-03T07:42:57.411Z,10.30
2019-05-03T07:45:25.991Z,10.30
2019-05-03T07:47:55.781Z,10.50
2019-05-03T07:50:25.929Z,10.50
2019-05-03T07:52:55.626Z,10.60
2019-05-03T07:55:42.616Z,10.60
2019-05-03T07:58:14.917Z,10.60
2019-05-03T08:00:44.565Z,10.70
2019-05-03T08:03:15.286Z,10.80
2019-05-03T08:05:45.478Z,10.80
2019-05-03T08:08:14.906Z,11.00
2019-05-03T08:10:44.948Z,11.10
2019-05-03T08:13:15.016Z,11.20
2019-05-03T08:15:45.217Z,11.30
2019-05-03T08:18:15.305Z,11.40
2019-05-03T08:20:45.297Z,11.40
2019-05-03T08:23:26.824Z,11.40
2019-05-03T08:25:44.614Z,11.30
2019-05-03T08:28:14.645Z,11.40
2019-05-03T08:30:48.555Z,11.50
2019-05-03T08:33:18.064Z,11.50
2019-05-03T08:35:48.217Z,11.40
2019-05-03T08:38:16.671Z,11.40
2019-05-03T08:40:46.875Z,11.50
2019-05-03T08:43:15.711Z,11.60
2019-05-03T08:45:44.799Z,11.80
2019-05-03T08:48:15.129Z,12.10
2019-05-03T08:50:45.065Z,12.30
2019-05-03T08:53:15.542Z,12.40
2019-05-03T08:55:44.937Z,12.40
2019-05-03T08:58:15.463Z,12.20
2019-05-03T09:00:45.463Z,12.30
2019-05-03T09:03:14.479Z,12.20
2019-05-03T09:05:45.840Z,12.20
2019-05-03T09:08:15.553Z,12.30
2019-05-03T09:11:00.588Z,12.40
2019-05-03T09:13:45.675Z,12.50
2019-05-03T09:16:14.770Z,12.60
2019-05-03T09:18:45.275Z,12.70
2019-05-03T09:21:14.811Z,12.80
2019-05-03T09:23:45.077Z,13.00
2019-05-03T09:26:15.097Z,13.00
2019-05-03T09:28:45.423Z,12.90
2019-05-03T09:31:15.532Z,12.80
2019-05-03T09:33:45.202Z,12.70
2019-05-03T09:36:14.735Z,12.60
2019-05-03T09:38:45.607Z,12.80
2019-05-03T09:41:15.053Z,12.90
2019-05-03T09:43:45.020Z,13.00
2019-05-03T09:46:14.683Z,13.10
2019-05-03T09:48:45.419Z,13.20
2019-05-03T09:51:14.709Z,13.40
2019-05-03T09:53:45.174Z,13.40
2019-05-03T09:56:15.485Z,13.30
2019-05-03T09:58:46.140Z,13.20
2019-05-03T10:01:15.200Z,13.00
2019-05-03T10:03:45.205Z,12.90
2019-05-03T10:06:15.408Z,12.80
2019-05-03T10:08:45.406Z,12.70
2019-05-03T10:11:15.559Z,12.70
2019-05-03T10:13:48.459Z,12.70
2019-05-03T10:16:15.616Z,12.80
2019-05-03T10:18:46.013Z,12.90
2019-05-03T10:21:14.879Z,13.00
2019-05-03T10:23:45.271Z,13.10
2019-05-03T10:26:14.897Z,13.10
2019-05-03T10:28:43.757Z,13.10
2019-05-03T10:31:12.499Z,13.40
2019-05-03T10:33:45.481Z,13.60
2019-05-03T10:36:15.489Z,13.60
2019-05-03T10:38:45.903Z,13.80
2019-05-03T10:41:14.565Z,13.90
2019-05-03T10:44:02.375Z,13.90
2019-05-03T10:46:30.825Z,14.00
2019-05-03T10:48:59.284Z,14.20
2019-05-03T10:51:29.387Z,14.30
2019-05-03T10:53:59.583Z,14.20
2019-05-03T10:56:32.673Z,14.10
2019-05-03T10:59:07.100Z,14.00
2019-05-03T11:01:40.401Z,14.00
2019-05-03T11:04:08.080Z,14.10
2019-05-03T11:06:36.569Z,14.10
2019-05-03T11:09:06.532Z,14.20
2019-05-03T11:11:35.322Z,14.10
2019-05-03T11:14:05.428Z,14.10
2019-05-03T11:16:35.130Z,14.10
2019-05-03T11:19:05.518Z,14.20
2019-05-03T11:21:34.788Z,14.10
2019-05-03T11:24:03.446Z,14.20
2019-05-03T11:26:34.693Z,14.30
2019-05-03T11:29:04.973Z,14.10
2019-05-03T11:31:50.707Z,14.00
2019-05-03T11:34:26.704Z,13.90
2019-05-03T11:37:05.786Z,13.60
2019-05-03T11:39:34.503Z,13.40
2019-05-03T11:42:04.677Z,13.30
2019-05-03T11:44:39.553Z,13.30
2019-05-03T11:47:09.506Z,13.40
2019-05-03T11:49:57.388Z,13.50
2019-05-03T11:52:26.004Z,13.60
2019-05-03T11:54:55.864Z,13.60
2019-05-03T11:57:26.379Z,13.70
2019-05-03T11:59:55.105Z,13.70
2019-05-03T12:02:31.323Z,13.70
2019-05-03T12:05:01.443Z,13.60
2019-05-03T12:07:39.907Z,13.50
2019-05-03T12:10:17.067Z,13.60
2019-05-03T12:12:39.143Z,13.80
2019-05-03T12:15:09.964Z,13.90
2019-05-03T12:17:52.011Z,13.90
2019-05-03T12:20:17.230Z,14.00
2019-05-03T12:22:46.327Z,14.10
2019-05-03T12:25:16.452Z,14.10
2019-05-03T12:27:44.547Z,14.10
2019-05-03T12:30:15.319Z,14.10
2019-05-03T12:32:43.889Z,14.10
2019-05-03T12:35:12.399Z,13.80
2019-05-03T12:37:40.923Z,13.60
2019-05-03T12:40:11.486Z,13.40
2019-05-03T12:42:39.959Z,13.20
2019-05-03T12:45:08.655Z,13.20
2019-05-03T12:47:37.130Z,13.00
2019-05-03T12:50:06.921Z,13.00
2019-05-03T12:52:43.495Z,12.80
2019-05-03T12:55:07.615Z,12.60
2019-05-03T12:57:36.332Z,12.50
2019-05-03T13:00:15.528Z,12.50
2019-05-03T13:02:44.633Z,12.60
2019-05-03T13:05:15.386Z,12.60
2019-05-03T13:07:50.957Z,12.50
2019-05-03T13:10:22.478Z,12.40
2019-05-03T13:12:53.122Z,12.30
2019-05-03T13:15:19.881Z,12.30
2019-05-03T13:17:48.320Z,12.20
2019-05-03T13:20:17.661Z,12.10
2019-05-03T13:22:46.104Z,12.10
2019-05-03T13:25:15.554Z,12.00
2019-05-03T13:27:46.207Z,11.90
2019-05-03T13:30:15.945Z,11.90
2019-05-03T13:32:45.711Z,11.80
2019-05-03T13:35:15.013Z,11.70
2019-05-03T13:37:45.342Z,11.70
2019-05-03T13:40:14.111Z,11.70
2019-05-03T13:42:54.262Z,11.50
2019-05-03T13:45:12.859Z,11.60
2019-05-03T13:47:41.323Z,11.50
2019-05-03T13:50:10.420Z,11.40
2019-05-03T13:52:38.887Z,11.30
2019-05-03T13:55:08.072Z,11.30
2019-05-03T13:57:36.529Z,11.40
2019-05-03T14:00:07.031Z,11.50
2019-05-03T14:02:35.884Z,11.50
2019-05-03T14:05:07.746Z,11.50
2019-05-03T14:07:37.723Z,11.40
2019-05-03T14:10:07.155Z,11.50
2019-05-03T14:12:35.622Z,11.50
2019-05-03T14:15:09.180Z,11.50
2019-05-03T14:17:37.649Z,11.50
2019-05-03T14:20:10.088Z,11.70
2019-05-03T14:22:40.171Z,11.90
2019-05-03T14:25:08.792Z,12.10
2019-05-03T14:27:37.247Z,12.20
2019-05-03T14:30:09.115Z,12.20
2019-05-03T14:32:37.685Z,12.30
2019-05-03T14:35:07.427Z,12.30
2019-05-03T14:37:37.933Z,12.20
2019-05-03T14:40:07.695Z,12.10
2019-05-03T14:42:37.187Z,11.80
2019-05-03T14:45:07.272Z,11.70
2019-05-03T14:47:35.719Z,11.60
2019-05-03T14:50:06.177Z,11.60
2019-05-03T14:52:34.921Z,11.60
2019-05-03T14:55:06.779Z,11.50
2019-05-03T14:57:46.137Z,11.50
2019-05-03T15:00:19.122Z,11.50
2019-05-03T15:02:51.057Z,11.50
2019-05-03T15:05:19.606Z,11.50
2019-05-03T15:07:48.060Z,11.60
2019-05-03T15:10:16.625Z,11.60
2019-05-03T15:12:45.351Z,11.60
2019-05-03T15:15:14.746Z,11.50
2019-05-03T15:17:45.542Z,11.50
2019-05-03T15:20:14.863Z,11.50
2019-05-03T15:22:45.451Z,11.40
2019-05-03T15:25:14.340Z,11.30
2019-05-03T15:27:44.674Z,11.30
2019-05-03T15:30:15.476Z,11.10
2019-05-03T15:32:57.043Z,11.00
2019-05-03T15:35:15.180Z,10.90
2019-05-03T15:37:45.278Z,10.90
2019-05-03T15:40:15.620Z,10.80
2019-05-03T15:42:46.121Z,10.80
2019-05-03T15:45:18.975Z,10.80
2019-05-03T15:48:05.410Z,10.80
2019-05-03T15:50:35.536Z,10.90
2019-05-03T15:53:05.030Z,10.90
2019-05-03T15:55:33.565Z,10.90
2019-05-03T15:58:04.648Z,10.90
2019-05-03T16:00:32.854Z,10.90
2019-05-03T16:03:08.021Z,11.00
2019-05-03T16:05:31.502Z,11.10
2019-05-03T16:07:59.955Z,11.20
2019-05-03T16:10:30.928Z,11.30
2019-05-03T16:12:59.456Z,11.50
2019-05-03T16:15:27.912Z,11.60
2019-05-03T16:17:56.451Z,11.60
2019-05-03T16:20:25.220Z,11.60
2019-05-03T16:22:54.479Z,11.60
2019-05-03T16:25:25.086Z,11.50
2019-05-03T16:27:55.737Z,11.40
2019-05-03T16:30:26.106Z,11.30
2019-05-03T16:32:55.010Z,11.20
2019-05-03T16:35:26.520Z,11.10
2019-05-03T16:37:54.972Z,11.00
2019-05-03T16:40:25.235Z,10.80
2019-05-03T16:42:53.867Z,10.70
2019-05-03T16:45:22.313Z,10.60
2019-05-03T16:47:50.793Z,10.60
2019-05-03T16:50:19.250Z,10.40
2019-05-03T16:52:47.791Z,10.40
2019-05-03T16:55:16.450Z,10.30
2019-05-03T16:57:45.672Z,10.30
2019-05-03T17:00:17.853Z,10.30
2019-05-03T17:02:46.108Z,10.30
2019-05-03T17:05:19.669Z,10.20
2019-05-03T17:07:52.676Z,10.20
2019-05-03T17:10:27.953Z,10.20
2019-05-03T17:12:57.016Z,10.30
2019-05-03T17:15:26.689Z,10.30
2019-05-03T17:17:58.295Z,10.20
2019-05-03T17:20:26.831Z,10.20
2019-05-03T17:22:56.819Z,10.20
2019-05-03T17:25:25.281Z,10.10
2019-05-03T17:27:54.301Z,10.00
2019-05-03T17:30:32.709Z,9.90
2019-05-03T17:32:55.016Z,9.90
2019-05-03T17:35:25.139Z,9.80
2019-05-03T17:37:54.651Z,9.70
2019-05-03T17:40:34.886Z,9.60
2019-05-03T17:43:14.528Z,9.50
2019-05-03T17:45:46.821Z,9.50
2019-05-03T17:48:16.820Z,9.40
2019-05-03T17:50:45.530Z,9.30
2019-05-03T17:53:15.720Z,9.30
2019-05-03T17:55:46.581Z,9.30
2019-05-03T17:58:19.844Z,9.20
2019-05-03T18:01:06.219Z,9.20
2019-05-03T18:03:38.859Z,9.20
2019-05-03T18:06:16.457Z,9.20
2019-05-03T18:09:05.687Z,9.20
2019-05-03T18:11:35.901Z,9.20
2019-05-03T18:14:05.541Z,9.10
2019-05-03T18:16:35.033Z,9.10
2019-05-03T18:19:05.192Z,9.20
2019-05-03T18:21:33.873Z,9.10
2019-05-03T18:24:02.323Z,9.10
2019-05-03T18:26:32.175Z,9.10
2019-05-03T18:29:00.653Z,9.10
2019-05-03T18:31:29.134Z,9.10
2019-05-03T18:33:57.667Z,9.10
2019-05-03T18:36:26.111Z,9.10
2019-05-03T18:38:55.327Z,9.10
2019-05-03T18:41:25.399Z,9.10
2019-05-03T18:43:56.219Z,9.10
2019-05-03T18:46:29.231Z,9.00
2019-05-03T18:48:57.738Z,9.00
2019-05-03T18:51:26.402Z,9.00
2019-05-03T18:53:55.087Z,9.00
2019-05-03T18:56:25.192Z,9.00
2019-05-03T18:58:54.441Z,9.00
2019-05-03T19:01:22.962Z,8.90
2019-05-03T19:04:01.053Z,8.90
2019-05-03T19:06:30.202Z,8.90
2019-05-03T19:09:11.420Z,8.80
2019-05-03T19:11:41.787Z,8.70
2019-05-03T19:14:15.054Z,8.60
2019-05-03T19:16:54.615Z,8.50
2019-05-03T19:19:35.269Z,8.30
2019-05-03T19:22:05.193Z,8.20
2019-05-03T19:24:35.172Z,8.10
2019-05-03T19:27:05.112Z,8.00
2019-05-03T19:29:34.431Z,7.90
2019-05-03T19:32:05.548Z,7.70
2019-05-03T19:34:55.627Z,7.50
2019-05-03T19:37:26.865Z,7.40
2019-05-03T19:39:55.908Z,7.30
2019-05-03T19:42:27.203Z,7.30
2019-05-03T19:44:55.292Z,7.30
2019-05-03T19:47:25.227Z,7.20
2019-05-03T19:49:54.681Z,7.30
2019-05-03T19:52:25.542Z,7.30
2019-05-03T19:54:55.708Z,7.20
2019-05-03T19:57:25.867Z,7.30
2019-05-03T19:59:56.830Z,7.30
2019-05-03T20:02:42.469Z,7.30
2019-05-03T20:05:25.082Z,7.30
2019-05-03T20:08:12.373Z,7.30
2019-05-03T20:10:43.148Z,7.20
2019-05-03T20:13:11.949Z,7.20
2019-05-03T20:15:40.514Z,7.20
2019-05-03T20:18:09.200Z,7.20
2019-05-03T20:20:38.111Z,7.20
2019-05-03T20:23:07.425Z,7.20
2019-05-03T20:25:41.626Z,7.10
2019-05-03T20:28:10.199Z,7.20
2019-05-03T20:30:38.696Z,7.10
2019-05-03T20:33:07.159Z,7.10
2019-05-03T20:35:35.803Z,7.10
2019-05-03T20:38:04.962Z,7.10
2019-05-03T20:40:35.103Z,7.00
2019-05-03T20:43:25.800Z,7.00
2019-05-03T20:45:59.144Z,7.00
2019-05-03T20:48:27.708Z,7.00
2019-05-03T20:50:56.216Z,6.90
2019-05-03T20:53:25.080Z,6.90
2019-05-03T20:55:54.571Z,6.90
2019-05-03T20:58:25.068Z,6.90
2019-05-03T21:00:54.561Z,6.90
2019-05-03T21:03:24.940Z,6.80
2019-05-03T21:05:55.281Z,6.90
2019-05-03T21:08:25.595Z,6.80
2019-05-03T21:10:55.914Z,6.80
2019-05-03T21:13:25.278Z,6.80
2019-05-03T21:15:56.624Z,6.80
2019-05-03T21:18:35.776Z,6.70
2019-05-03T21:21:06.646Z,6.80
2019-05-03T21:23:42.618Z,6.80
2019-05-03T21:26:13.497Z,6.80
2019-05-03T21:28:41.288Z,6.80
2019-05-03T21:31:09.801Z,6.80
2019-05-03T21:33:38.864Z,6.80
2019-05-03T21:36:07.334Z,6.70
2019-05-03T21:38:35.824Z,6.80
2019-05-03T21:41:05.425Z,6.80
2019-05-03T21:43:35.054Z,6.70
2019-05-03T21:46:18.072Z,6.70
2019-05-03T21:49:04.479Z,6.70
2019-05-03T21:51:34.610Z,6.70
2019-05-03T21:54:06.661Z,6.70
2019-05-03T21:56:35.585Z,6.80
2019-05-03T21:59:05.613Z,6.80
2019-05-03T22:01:37.473Z,6.80
2019-05-03T22:04:06.551Z,6.80
2019-05-03T22:06:35.184Z,6.80
2019-05-03T22:09:06.326Z,6.80
2019-05-03T22:11:34.885Z,6.80
2019-05-03T22:14:05.128Z,6.80
2019-05-03T22:16:36.760Z,6.80
2019-05-03T22:19:05.202Z,6.80
2019-05-03T22:21:36.985Z,6.80
2019-05-03T22:24:25.245Z,6.80
2019-05-03T22:26:55.780Z,6.80
2019-05-03T22:29:25.971Z,6.80
2019-05-03T22:31:56.817Z,6.70
2019-05-03T22:34:25.898Z,6.70
2019-05-03T22:36:55.036Z,6.60
2019-05-03T22:39:24.938Z,6.60
2019-05-03T22:41:53.845Z,6.50
2019-05-03T22:44:22.331Z,6.50
2019-05-03T22:46:50.862Z,6.50
2019-05-03T22:49:19.884Z,6.50
2019-05-03T22:51:50.295Z,6.50
2019-05-03T22:54:18.828Z,6.50
2019-05-03T22:56:47.370Z,6.40
2019-05-03T22:59:15.855Z,6.40
2019-05-03T23:01:45.867Z,6.40
2019-05-03T23:04:14.835Z,6.40
2019-05-03T23:06:46.810Z,6.30
2019-05-03T23:09:15.957Z,6.30
2019-05-03T23:11:45.017Z,6.30
2019-05-03T23:14:15.109Z,6.40
2019-05-03T23:16:44.824Z,6.40
2019-05-03T23:19:14.936Z,6.40
2019-05-03T23:21:45.495Z,6.30
2019-05-03T23:24:15.397Z,6.40
2019-05-03T23:26:45.135Z,6.30
2019-05-03T23:29:14.002Z,6.30
2019-05-03T23:31:44.693Z,6.30
2019-05-03T23:34:12.752Z,6.30
2019-05-03T23:36:41.304Z,6.20
2019-05-03T23:39:09.848Z,6.20
2019-05-03T23:41:38.429Z,6.20
2019-05-03T23:44:08.800Z,6.20
2019-05-03T23:46:55.515Z,6.20
2019-05-03T23:49:25.029Z,6.20
2019-05-03T23:51:55.867Z,6.20
2019-05-03T23:54:24.781Z,6.20
2019-05-03T23:56:54.740Z,6.20
2019-05-03T23:59:23.335Z,6.20
